Time;durP1;ratioP1;P1;durP2;ratioP2;P2;SDS_P1;SDS_P2;PMS_P1;PMS_P2;Temp;Humidity;BMP_temperature;BMP_pressure;BME280_temperature;BME280_humidity;BME280_pressure;Samples;Min_cycle;Max_cycle;Signal;HPM_P1;HPM_P2
2022/05/05 00:00:18;;;;;;;2.72;1.45;;;;;;;3.80;100.00;100218.31;1680329;83;21459;-60
2022/05/05 00:02:46;;;;;;;4.58;1.20;;;;;;;3.67;100.00;100218.39;1676561;83;21508;-60
2022/05/05 00:05:12;;;;;;;5.53;1.50;;;;;;;3.57;100.00;100221.23;1685737;84;21520;-60
2022/05/05 00:07:38;;;;;;;10.05;3.17;;;;;;;3.44;100.00;100219.42;1683344;84;21051;-60
2022/05/05 00:14:23;;;;;;;10.18;3.17;;;;;;;3.34;100.00;100219.87;1672047;84;21122;-60
2022/05/05 00:15:19;;;;;;;7.87;2.77;;;;;;;3.17;100.00;100228.64;1677442;84;21090;-60
2022/05/05 00:17:46;;;;;;;8.43;3.00;;;;;;;3.05;100.00;100224.42;1673536;84;21107;-60
2022/05/05 00:20:15;;;;;;;6.05;2.42;;;;;;;3.00;100.00;100230.97;1677561;84;21097;-61
2022/05/05 00:22:42;;;;;;;9.15;3.25;;;;;;;2.94;100.00;100233.96;1674045;84;21510;-60
2022/05/05 00:25:09;;;;;;;8.50;3.05;;;;;;;2.96;100.00;100233.77;1679633;84;21162;-60
2022/05/05 00:27:36;;;;;;;8.48;3.00;;;;;;;2.97;100.00;100241.64;1671599;84;21069;-61
2022/05/05 00:30:03;;;;;;;;;;;;;;;2.94;100.00;100242.58;1685878;83;21137;-61
2022/05/05 00:32:30;;;;;;;10.13;3.40;;;;;;;2.85;100.00;100252.71;1678234;84;20135;-61
2022/05/05 00:34:57;;;;;;;11.55;3.85;;;;;;;2.74;100.00;100255.20;1673175;83;21098;-60
2022/05/05 00:37:24;;;;;;;10.03;3.80;;;;;;;2.68;100.00;100253.36;1675365;84;21107;-60
2022/05/05 00:39:50;;;;;;;13.25;4.50;;;;;;;2.63;100.00;100258.00;1683316;84;21665;-61
2022/05/05 00:42:16;;;;;;;9.10;3.70;;;;;;;2.60;100.00;100256.25;1677285;84;21716;-60
2022/05/05 00:44:43;;;;;;;;;;;;;;;2.59;100.00;100257.30;1682927;84;21087;-60
2022/05/05 00:47:15;;;;;;;9.63;3.22;;;;;;;2.63;100.00;100263.89;1671782;84;20186;-61
2022/05/05 00:49:44;;;;;;;12.58;3.50;;;;;;;2.63;100.00;100266.06;1671481;84;21110;-61
2022/05/05 00:52:10;;;;;;;8.58;3.15;;;;;;;2.57;100.00;100256.16;1671660;84;21087;-60
2022/05/05 00:54:39;;;;;;;7.83;3.27;;;;;;;2.61;100.00;100264.63;1679524;84;21627;-61
2022/05/05 00:57:06;;;;;;;8.78;3.15;;;;;;;2.58;100.00;100271.77;1678858;84;21005;-60
2022/05/05 00:59:33;;;;;;;;;;;;;;;2.57;100.00;100266.07;1663258;84;21123;-60
2022/05/05 01:01:59;;;;;;;7.90;2.95;;;;;;;2.57;100.00;100269.59;1684480;84;20435;-61
2022/05/05 01:04:25;;;;;;;6.55;2.77;;;;;;;2.52;100.00;100262.66;1678337;83;21102;-60
2022/05/05 01:06:52;;;;;;;8.23;3.20;;;;;;;2.51;100.00;100274.45;1683292;83;20989;-61
2022/05/05 01:09:19;;;;;;;7.78;2.77;;;;;;;2.49;100.00;100275.16;1713630;82;21047;-60
2022/05/05 01:11:46;;;;;;;7.40;3.60;;;;;;;2.42;100.00;100275.16;1726904;82;20959;-61
2022/05/05 01:14:15;;;;;;;7.92;3.27;;;;;;;2.38;100.00;100277.12;1717000;82;21085;-61
2022/05/05 01:16:42;;;;;;;9.63;3.60;;;;;;;2.33;100.00;100279.09;1721985;82;21453;-60
2022/05/05 01:19:08;;;;;;;8.38;3.30;;;;;;;2.35;100.00;100282.39;1717891;82;21510;-60
2022/05/05 01:21:35;;;;;;;9.63;3.47;;;;;;;2.37;100.00;100282.20;1718227;82;21001;-61
2022/05/05 01:24:01;;;;;;;7.40;3.27;;;;;;;2.32;100.00;100284.16;1722243;80;21592;-60
2022/05/05 01:29:13;;;;;;;8.60;3.55;;;;;;;2.16;100.00;100288.55;1721942;82;20501;-59
2022/05/05 01:31:40;;;;;;;11.38;3.10;;;;;;;2.03;100.00;100288.53;1716260;82;21007;-60
2022/05/05 01:34:08;;;;;;;8.58;3.52;;;;;;;2.00;100.00;100287.09;1710022;82;21573;-59
2022/05/05 01:36:34;;;;;;;;;;;;;;;1.94;100.00;100288.42;1685640;83;21517;-59
2022/05/05 01:39:01;;;;;;;7.58;3.17;;;;;;;1.92;100.00;100293.98;1661438;85;20138;-60
2022/05/05 01:41:27;;;;;;;7.78;3.98;;;;;;;1.86;100.00;100300.16;1656422;85;21008;-60
2022/05/05 01:43:54;;;;;;;7.85;3.25;;;;;;;1.87;100.00;100296.46;1709933;82;21056;-59
2022/05/05 01:46:20;;;;;;;8.28;3.20;;;;;;;1.89;100.00;100293.55;1716783;82;21018;-60
2022/05/05 01:48:47;;;;;;;6.40;2.77;;;;;;;1.85;100.00;100307.06;1715694;82;21037;-60
2022/05/05 01:51:13;;;;;;;6.45;2.75;;;;;;;1.75;100.00;100302.59;1700862;82;22013;-60
2022/05/05 01:53:40;;;;;;;9.43;2.90;;;;;;;1.67;100.00;100305.44;1720489;80;21023;-60
2022/05/05 01:56:11;;;;;;;6.17;2.98;;;;;;;1.62;100.00;100303.38;1719218;82;21085;-60
2022/05/05 01:58:39;;;;;;;6.22;3.10;;;;;;;1.66;100.00;100306.49;1718738;82;21030;-60
2022/05/05 02:01:06;;;;;;;8.68;3.25;;;;;;;1.67;100.00;100312.16;1715069;82;21001;-60
2022/05/05 02:03:34;;;;;;;8.73;3.22;;;;;;;1.63;100.00;100310.92;1718477;82;21021;-60
2022/05/05 02:06:00;;;;;;;8.65;3.55;;;;;;;1.55;100.00;100312.43;1725254;81;21068;-60
2022/05/05 02:08:27;;;;;;;;;;;;;;;1.47;100.00;100310.73;1722647;81;21039;-60
2022/05/05 02:10:55;;;;;;;7.22;2.67;;;;;;;1.42;100.00;100314.00;1718921;81;20111;-61
2022/05/05 02:13:22;;;;;;;8.38;3.08;;;;;;;1.41;100.00;100315.56;1718047;81;21030;-59
2022/05/05 02:15:48;;;;;;;7.45;2.92;;;;;;;1.43;100.00;100321.03;1716735;81;21043;-60
2022/05/05 02:18:15;;;;;;;6.60;3.00;;;;;;;1.34;100.00;100306.14;1729447;81;20999;-60
2022/05/05 02:20:42;;;;;;;5.53;2.87;;;;;;;1.35;100.00;100327.06;1716976;81;21045;-60
2022/05/05 02:23:08;;;;;;;6.17;2.98;;;;;;;1.29;100.00;100330.55;1722737;81;20966;-60
2022/05/05 02:25:35;;;;;;;8.53;2.85;;;;;;;1.28;100.00;100330.22;1717482;81;21043;-60
2022/05/05 02:28:02;;;;;;;7.90;3.35;;;;;;;1.32;100.00;100345.73;1698838;82;21027;-60
2022/05/05 02:30:29;;;;;;;9.08;3.30;;;;;;;1.33;100.00;100336.66;1722168;81;21485;-59
2022/05/05 02:32:56;;;;;;;6.25;3.65;;;;;;;1.29;100.00;100337.25;1666841;83;21156;-60
2022/05/05 02:35:23;;;;;;;11.08;3.62;;;;;;;1.22;100.00;100342.58;1725443;81;21057;-60
2022/05/05 02:47:53;;;;;;;10.20;5.30;;;;;;;1.36;100.00;100344.31;1877260;74;22916;-60
2022/05/05 02:50:20;;;;;;;9.70;5.35;;;;;;;1.33;100.00;100363.49;1848588;75;21035;-60
2022/05/05 02:52:46;;;;;;;18.57;7.33;;;;;;;1.36;100.00;100363.60;1848017;75;21085;-60
2022/05/05 02:55:13;;;;;;;17.80;7.75;;;;;;;1.45;100.00;100361.09;1845694;75;21034;-60
2022/05/05 02:57:39;;;;;;;15.13;8.03;;;;;;;1.49;100.00;100357.80;1852868;75;21358;-60
2022/05/05 03:00:11;;;;;;;20.88;9.08;;;;;;;1.55;100.00;100359.39;1867606;76;21601;-60
2022/05/05 03:02:37;;;;;;;21.62;10.55;;;;;;;1.61;100.00;100365.30;1825506;76;21508;-60
2022/05/05 03:05:05;;;;;;;20.32;9.63;;;;;;;1.65;100.00;100358.50;1861021;75;21613;-60
2022/05/05 03:07:32;;;;;;;23.55;11.53;;;;;;;1.70;100.00;100360.89;1854319;75;21024;-60
2022/05/05 03:09:58;;;;;;;22.73;11.45;;;;;;;1.77;100.00;100363.64;1848465;75;21915;-60
2022/05/05 03:12:25;;;;;;;24.00;11.83;;;;;;;1.82;100.00;100365.19;1851011;75;21519;-60
2022/05/05 03:14:51;;;;;;;25.15;13.03;;;;;;;1.88;100.00;100367.90;1864180;75;21075;-60
2022/05/05 03:17:18;;;;;;;24.57;11.73;;;;;;;1.97;100.00;100372.59;1849935;76;21043;-60
2022/05/05 03:19:44;;;;;;;28.50;13.20;;;;;;;2.02;100.00;100372.80;1844717;76;21073;-60
2022/05/05 03:22:10;;;;;;;26.15;11.68;;;;;;;2.09;100.00;100376.34;1852552;75;21430;-60
2022/05/05 03:24:37;;;;;;;;;;;;;;;2.13;100.00;100376.77;1791215;79;21099;-60
2022/05/05 03:27:05;;;;;;;29.70;12.90;;;;;;;2.20;100.00;100384.33;1790969;79;20117;-60
2022/05/05 03:29:32;;;;;;;27.17;13.43;;;;;;;2.20;100.00;100383.82;1779084;78;21023;-60
2022/05/05 03:31:58;;;;;;;26.20;12.50;;;;;;;2.25;100.00;100384.56;1789656;79;21453;-60
2022/05/05 03:34:25;;;;;;;25.85;12.23;;;;;;;2.32;100.00;100384.07;1792737;79;21073;-60
2022/05/05 03:36:52;;;;;;;27.48;12.63;;;;;;;2.39;100.00;100389.78;1789812;79;21723;-59
2022/05/05 03:39:19;;;;;;;27.58;12.55;;;;;;;2.57;100.00;100391.05;1779938;78;21055;-59
2022/05/05 03:41:45;;;;;;;;;;;;;;;2.74;100.00;100395.83;1781426;78;21142;-59
2022/05/05 03:44:12;;;;;;;21.90;10.48;;;;;;;2.99;100.00;100391.52;1780495;79;20100;-60
2022/05/05 03:46:38;;;;;;;;;;;;;;;3.22;100.00;100395.14;1816480;77;21075;-60
2022/05/05 03:57:20;;;;;;;23.32;10.35;;;;;;;4.41;100.00;100408.55;1787281;78;23426;-60
2022/05/05 03:59:47;;;;;;;20.95;10.13;;;;;;;4.58;100.00;100416.95;1744894;80;21484;-60
2022/05/05 04:02:13;;;;;;;23.35;10.80;;;;;;;4.83;100.00;100416.48;1729230;81;21062;-61
2022/05/05 04:04:40;;;;;;;17.50;9.55;;;;;;;5.07;100.00;100417.55;1731654;81;21058;-60
2022/05/05 04:07:06;;;;;;;20.43;9.13;;;;;;;5.33;100.00;100411.12;1737937;81;21036;-60
2022/05/05 04:09:33;;;;;;;18.20;8.43;;;;;;;5.57;100.00;100408.91;1735692;80;21095;-61
2022/05/05 04:11:59;;;;;;;15.08;7.00;;;;;;;5.80;100.00;100415.03;1733377;81;21093;-60
2022/05/05 04:14:26;;;;;;;12.33;6.90;;;;;;;6.04;100.00;100414.68;1710670;81;21434;-60
2022/05/05 04:16:52;;;;;;;;;;;;;;;6.21;100.00;100411.66;1719900;81;21085;-60
2022/05/05 04:19:19;;;;;;;10.43;4.97;;;;;;;6.39;100.00;100418.41;1727376;81;20411;-61
2022/05/05 04:21:45;;;;;;;;;;;;;;;6.52;100.00;100420.13;1741368;81;21533;-61
2022/05/05 04:24:12;;;;;;;12.05;3.08;;;;;;;6.66;100.00;100413.48;1733035;80;20108;-61
2022/05/05 04:26:39;;;;;;;5.17;2.55;;;;;;;6.79;100.00;100414.11;1724375;81;21087;-60
2022/05/05 04:29:05;;;;;;;6.92;2.75;;;;;;;6.89;100.00;100416.25;1715071;81;21049;-60
2022/05/05 04:32:53;;;;;;;4.00;2.05;;;;;;;7.19;100.00;100414.85;1805394;78;23196;-60
2022/05/05 04:35:20;;;;;;;7.97;2.62;;;;;;;7.32;100.00;100424.94;1760645;80;21468;-60
2022/05/05 04:37:47;;;;;;;3.62;1.92;;;;;;;7.45;100.00;100416.57;1752833;80;21042;-60
2022/05/05 04:40:14;;;;;;;4.55;1.65;;;;;;;7.60;100.00;100425.59;1730869;81;21050;-60
2022/05/05 04:42:41;;;;;;;;;;;;;;;7.61;100.00;100407.45;1754817;80;21058;-60
2022/05/05 04:45:09;;;;;;;4.75;1.90;;;;;;;7.79;100.00;100418.17;1733094;80;20114;-59
2022/05/05 04:47:37;;;;;;;4.10;2.00;;;;;;;7.92;100.00;100419.27;1756215;80;21214;-59
2022/05/05 04:50:06;;;;;;;7.28;1.90;;;;;;;7.95;100.00;100416.91;1757742;80;21066;-62
2022/05/05 04:52:33;;;;;;;6.25;2.02;;;;;;;8.07;100.00;100417.42;1726865;80;21022;-61
2022/05/05 04:54:59;;;;;;;5.10;2.22;;;;;;;8.26;100.00;100420.25;1724916;81;21063;-61
2022/05/05 04:57:26;;;;;;;3.80;1.98;;;;;;;8.39;100.00;100419.50;1749306;80;21055;-61
2022/05/05 04:59:53;;;;;;;4.45;2.00;;;;;;;8.55;100.00;100429.27;1746790;80;21057;-61
2022/05/05 05:02:19;;;;;;;3.20;1.70;;;;;;;8.62;100.00;100435.38;1751933;80;21013;-60
2022/05/05 05:04:46;;;;;;;4.92;1.85;;;;;;;8.77;100.00;100437.04;1756469;80;21025;-60
2022/05/05 05:07:13;;;;;;;4.50;2.10;;;;;;;8.85;100.00;100438.02;1696083;81;21045;-60
2022/05/05 05:09:41;;;;;;;5.08;2.02;;;;;;;8.95;100.00;100435.48;1703776;81;21007;-62
2022/05/05 05:12:10;;;;;;;5.22;2.05;;;;;;;8.97;98.19;100445.02;1758419;80;21567;-62
2022/05/05 05:14:36;;;;;;;4.28;1.87;;;;;;;8.97;100.00;100442.31;1754021;80;21053;-62
2022/05/05 05:17:03;;;;;;;4.92;1.70;;;;;;;9.13;100.00;100445.30;1754704;80;21050;-60
2022/05/05 05:19:30;;;;;;;4.12;2.10;;;;;;;9.27;96.13;100447.99;1760220;80;21032;-60
2022/05/05 05:21:57;;;;;;;6.00;2.55;;;;;;;9.21;100.00;100447.06;1749802;80;21500;-60
2022/05/05 05:24:23;;;;;;;5.78;2.27;;;;;;;9.33;99.95;100445.64;1751527;80;21089;-60
2022/05/05 05:26:50;;;;;;;4.17;1.82;;;;;;;9.47;100.00;100444.24;1737494;80;21493;-60
2022/05/05 05:29:16;;;;;;;5.00;1.70;;;;;;;9.60;99.41;100446.62;1761319;80;21764;-60
2022/05/05 05:31:43;;;;;;;4.17;1.90;;;;;;;9.71;97.25;100436.19;1752444;80;21058;-60
2022/05/05 05:34:10;;;;;;;3.58;1.90;;;;;;;9.91;91.93;100442.48;1741471;80;21165;-60
2022/05/05 05:36:36;;;;;;;5.65;1.70;;;;;;;9.92;91.84;100444.11;1742324;80;21063;-60
2022/05/05 05:39:03;;;;;;;;;;;;;;;9.91;88.27;100444.67;1748089;80;21038;-60
2022/05/05 05:41:29;;;;;;;6.90;2.10;;;;;;;9.97;89.28;100439.58;1727078;80;20415;-59
2022/05/05 05:43:56;;;;;;;4.12;1.52;;;;;;;10.06;86.59;100444.03;1727940;81;21083;-59
2022/05/05 05:46:22;;;;;;;3.90;1.80;;;;;;;10.27;85.40;100446.55;1753720;81;21078;-59
2022/05/05 05:48:48;;;;;;;2.50;1.02;;;;;;;10.42;85.77;100452.98;1745857;80;21038;-59
2022/05/05 05:51:15;;;;;;;2.62;1.45;;;;;;;10.49;77.10;100452.26;1739035;81;21041;-60
2022/05/05 05:53:41;;;;;;;2.87;1.35;;;;;;;10.60;70.39;100446.93;1731327;81;21001;-59
2022/05/05 05:56:08;;;;;;;5.58;1.32;;;;;;;10.61;69.57;100445.33;1744624;81;21029;-59
2022/05/05 05:58:38;;;;;;;5.10;1.52;;;;;;;10.77;71.23;100451.78;1752421;81;21464;-59
2022/05/05 06:01:06;;;;;;;2.80;1.10;;;;;;;10.94;70.94;100447.88;1737375;81;21036;-59
2022/05/05 06:06:18;;;;;;;4.40;1.42;;;;;;;11.36;67.79;100452.09;1751932;81;21038;-59
2022/05/05 06:08:45;;;;;;;3.08;1.20;;;;;;;11.54;64.32;100452.77;1751917;81;21530;-58
2022/05/05 06:11:13;;;;;;;1.92;1.00;;;;;;;11.51;58.24;100462.30;1731544;81;21031;-59
2022/05/05 06:13:40;;;;;;;4.58;1.15;;;;;;;11.54;56.66;100462.31;1743683;81;21003;-58
2022/05/05 06:16:09;;;;;;;2.35;1.22;;;;;;;11.51;57.62;100458.75;1734797;81;21084;-58
2022/05/05 06:18:37;;;;;;;3.58;1.57;;;;;;;11.59;58.46;100459.08;1748030;81;21036;-58
2022/05/05 06:21:04;;;;;;;3.25;1.20;;;;;;;11.73;56.57;100468.48;1719232;81;21013;-58
2022/05/05 06:23:30;;;;;;;3.98;1.40;;;;;;;11.79;57.89;100449.73;1753320;81;21082;-60
2022/05/05 06:25:57;;;;;;;5.45;1.25;;;;;;;12.17;60.57;100454.05;1746448;81;21024;-60
2022/05/05 06:28:23;;;;;;;5.15;1.42;;;;;;;12.57;55.78;100460.25;1745721;81;21553;-61
2022/05/05 06:30:50;;;;;;;2.45;1.15;;;;;;;12.70;50.53;100458.92;1736810;81;21573;-59
2022/05/05 06:33:17;;;;;;;2.42;1.12;;;;;;;12.71;47.88;100455.11;1732752;81;21025;-58
2022/05/05 06:35:43;;;;;;;4.47;1.45;;;;;;;12.83;45.15;100459.23;1730586;81;21131;-60
2022/05/05 06:38:10;;;;;;;;;;;;;;;12.90;43.97;100465.80;1724812;81;21023;-58
2022/05/05 06:40:36;;;;;;;4.03;1.30;;;;;;;12.92;44.04;100467.73;1735505;81;20115;-59
2022/05/05 06:43:03;;;;;;;;;;;;;;;12.89;41.18;100468.28;1726111;81;20991;-58
2022/05/05 06:45:30;;;;;;;;;;;;;;;12.70;39.60;100474.77;1732394;81;20122;-58
2022/05/05 06:47:58;;;;;;;2.47;1.07;;;;;;;12.55;39.26;100477.97;1735704;81;20139;-59
2022/05/05 06:50:26;;;;;;;4.67;1.20;;;;;;;12.60;39.06;100478.83;1724928;81;21515;-59
2022/05/05 06:52:52;;;;;;;2.20;1.02;;;;;;;12.57;38.99;100478.00;1728808;81;21046;-59
2022/05/05 06:55:19;;;;;;;3.30;1.40;;;;;;;12.60;40.69;100484.83;1729252;81;21051;-58
2022/05/05 06:57:47;;;;;;;;;;;;;;;12.95;39.07;100484.42;1736135;81;21028;-58
2022/05/05 07:00:14;;;;;;;3.92;1.27;;;;;;;13.27;37.82;100479.31;1722046;81;20512;-59
2022/05/05 07:02:41;;;;;;;2.80;1.12;;;;;;;13.32;39.16;100488.33;1699791;82;21053;-59
2022/05/05 07:05:27;;;;;;;;;;;;;;;13.43;38.58;100488.63;1724765;81;21079;-60
2022/05/05 07:07:54;;;;;;;3.17;1.30;;;;;;;13.61;38.50;100495.47;1727450;82;20445;-61
2022/05/05 07:13:01;;;;;;;4.55;2.35;;;;;;;13.69;37.54;100494.94;1716493;81;21059;-60
2022/05/05 07:15:27;;;;;;;3.42;2.20;;;;;;;13.56;36.71;100486.45;1726991;81;21090;-59
2022/05/05 07:17:54;;;;;;;2.98;2.00;;;;;;;13.45;37.33;100502.03;1729887;81;21437;-60
2022/05/05 07:20:23;;;;;;;2.75;1.27;;;;;;;13.26;37.93;100494.89;1724336;81;21150;-60
2022/05/05 07:22:51;;;;;;;3.87;1.20;;;;;;;13.17;39.26;100499.27;1720627;81;21538;-61
2022/05/05 07:25:19;;;;;;;3.05;1.45;;;;;;;13.34;38.60;100492.17;1735438;81;21107;-61
2022/05/05 07:27:46;;;;;;;4.92;1.27;;;;;;;13.26;38.28;100495.44;1718703;81;21094;-60
2022/05/05 07:30:14;;;;;;;4.10;1.25;;;;;;;13.20;38.64;100493.80;1727994;81;21072;-60
2022/05/05 07:32:41;;;;;;;2.62;1.15;;;;;;;13.16;39.35;100497.61;1727151;81;21026;-59
2022/05/05 07:35:09;;;;;;;3.85;1.15;;;;;;;13.22;39.29;100499.26;1733001;82;21145;-59
2022/05/05 07:37:42;;;;;;;3.02;1.00;;;;;;;13.36;39.54;100494.91;1729601;82;21576;-59
2022/05/05 07:40:09;;;;;;;3.25;1.12;;;;;;;13.55;38.91;100493.84;1733494;81;21529;-59
2022/05/05 07:42:37;;;;;;;2.60;1.32;;;;;;;13.57;37.06;100494.95;1728848;82;21182;-60
2022/05/05 07:45:08;;;;;;;1.80;1.00;;;;;;;13.54;36.90;100486.71;1741431;81;21059;-60
2022/05/05 07:47:35;;;;;;;3.72;1.25;;;;;;;13.63;37.17;100491.11;1738410;82;21012;-60
2022/05/05 07:50:02;;;;;;;;;;;;;;;13.61;36.69;100485.89;1734422;81;21560;-59
2022/05/05 07:52:28;;;;;;;3.33;1.47;;;;;;;13.72;36.67;100490.81;1740503;82;20392;-59
2022/05/05 07:54:55;;;;;;;3.70;1.47;;;;;;;13.78;37.03;100489.17;1717459;82;21043;-60
2022/05/05 07:57:22;;;;;;;;;;;;;;;13.91;36.27;100486.44;1737727;81;21060;-59
2022/05/05 07:59:49;;;;;;;3.62;0.90;;;;;;;13.91;35.88;100479.05;1734769;81;20125;-60
2022/05/05 08:02:16;;;;;;;2.35;1.27;;;;;;;13.84;37.47;100488.63;1731961;82;21015;-60
2022/05/05 08:04:43;;;;;;;2.75;1.30;;;;;;;13.90;38.18;100481.51;1727498;82;21086;-59
2022/05/05 08:07:11;;;;;;;2.58;1.10;;;;;;;14.11;38.08;100494.61;1738369;82;21057;-59
2022/05/05 08:09:37;;;;;;;4.80;1.40;;;;;;;14.30;36.26;100487.46;1733861;82;21082;-60
2022/05/05 08:12:05;;;;;;;2.45;0.95;;;;;;;14.27;35.86;100466.66;1722995;82;21115;-60
2022/05/05 08:14:32;;;;;;;3.40;1.07;;;;;;;14.36;35.63;100475.41;1693941;82;21101;-60
2022/05/05 08:16:59;;;;;;;3.17;0.90;;;;;;;14.44;34.90;100476.22;1724126;82;21027;-60
2022/05/05 08:19:25;;;;;;;2.35;1.25;;;;;;;14.41;34.58;100477.33;1731972;82;21086;-60
2022/05/05 08:21:53;;;;;;;3.22;1.37;;;;;;;14.54;35.30;100470.42;1727569;82;21538;-61
2022/05/05 08:29:51;;;;;;;1.92;1.15;;;;;;;14.74;34.39;100482.66;1723826;82;21109;-58
2022/05/05 08:32:18;;;;;;;5.33;1.25;;;;;;;14.62;33.64;100474.78;1735554;82;21084;-58
2022/05/05 08:34:45;;;;;;;2.70;1.37;;;;;;;14.38;33.61;100484.73;1727144;82;21547;-59
2022/05/05 08:37:12;;;;;;;4.62;1.30;;;;;;;14.29;34.25;100478.14;1722252;82;21086;-58
2022/05/05 08:39:38;;;;;;;5.62;1.10;;;;;;;14.37;35.15;100481.17;1722076;82;21778;-59
2022/05/05 08:42:06;;;;;;;2.62;1.17;;;;;;;14.41;35.53;100482.80;1732419;81;21390;-59
2022/05/05 08:44:33;;;;;;;4.62;1.30;;;;;;;14.60;35.34;100478.88;1725340;81;21153;-60
2022/05/05 08:47:00;;;;;;;2.75;1.10;;;;;;;14.76;34.47;100487.33;1733323;81;21051;-60
2022/05/05 08:49:27;;;;;;;2.42;1.07;;;;;;;14.87;32.20;100473.84;1730639;81;21046;-59
2022/05/05 08:52:13;;;;;;;2.92;1.52;;;;;;;14.71;34.33;100465.41;1734615;82;21589;-60
2022/05/05 08:54:39;;;;;;;3.02;1.00;;;;;;;14.88;34.22;100472.17;1740552;81;21082;-59
2022/05/05 08:57:06;;;;;;;3.85;1.00;;;;;;;15.07;33.67;100466.04;1735972;81;20996;-59
2022/05/05 08:59:33;;;;;;;3.40;0.98;;;;;;;15.18;33.14;100467.07;1725278;82;21079;-59
2022/05/05 09:01:59;;;;;;;;;;;;;;;15.27;34.37;100482.35;1761292;80;21085;-59
2022/05/05 09:04:26;;;;;;;3.17;1.10;;;;;;;15.19;32.73;100473.38;1742310;81;20092;-60
2022/05/05 09:06:53;;;;;;;1.92;1.05;;;;;;;15.21;33.06;100471.98;1733021;81;21015;-61
2022/05/05 09:09:29;;;;;;;3.05;1.10;;;;;;;15.20;33.15;100479.94;1725616;81;21589;-60
2022/05/05 09:12:14;;;;;;;;;;;;;;;15.18;32.29;100479.41;1727316;82;21461;-60
2022/05/05 09:14:48;;;;;;;2.33;1.10;;;;;;;15.14;32.41;100478.88;1727259;81;20125;-60
2022/05/05 09:17:17;;;;;;;3.30;1.07;;;;;;;15.04;31.97;100467.44;1726398;82;21092;-60
2022/05/05 09:19:52;;;;;;;2.72;0.90;;;;;;;15.07;31.60;100481.95;1723831;81;21069;-60
2022/05/05 09:22:22;;;;;;;3.12;1.10;;;;;;;14.98;30.88;100467.20;1736696;82;21007;-60
2022/05/05 09:24:51;;;;;;;2.37;0.95;;;;;;;14.83;31.92;100475.50;1738813;81;21019;-60
2022/05/05 09:27:27;;;;;;;2.80;1.00;;;;;;;14.55;31.36;100463.84;1710069;82;21067;-61
2022/05/05 09:30:12;;;;;;;2.12;1.22;;;;;;;14.37;33.12;100473.50;1738159;81;21011;-60
2022/05/05 09:32:44;;;;;;;3.25;1.27;;;;;;;14.11;33.09;100476.81;1725002;81;21603;-59
2022/05/05 09:35:17;;;;;;;4.22;1.25;;;;;;;14.04;33.00;100481.76;1742262;81;21094;-60
2022/05/05 09:37:50;;;;;;;2.42;1.17;;;;;;;13.85;33.85;100484.23;1737000;81;21706;-59
2022/05/05 09:40:18;;;;;;;2.17;0.90;;;;;;;13.69;33.55;100470.31;1733303;81;21047;-60
2022/05/05 09:42:49;;;;;;;2.25;1.00;;;;;;;13.61;34.21;100479.05;1746076;81;21586;-59
2022/05/05 09:45:22;;;;;;;2.15;1.30;;;;;;;13.52;33.84;100475.23;1706820;81;21047;-59
2022/05/05 09:47:54;;;;;;;3.70;0.80;;;;;;;13.36;34.65;100474.39;1730842;81;21033;-59
2022/05/05 09:50:23;;;;;;;2.70;1.30;;;;;;;13.30;35.31;100479.59;1743776;80;21121;-59
2022/05/05 09:58:23;;;;;;;2.65;1.17;;;;;;;13.39;36.33;100471.11;1734140;81;21511;-59
2022/05/05 10:01:04;;;;;;;2.62;1.00;;;;;;;13.42;37.27;100463.75;1725495;81;21064;-60
2022/05/05 10:04:03;;;;;;;4.47;1.60;;;;;;;13.49;37.32;100472.23;1740130;81;20978;-59
2022/05/05 10:06:36;;;;;;;2.17;0.93;;;;;;;13.49;35.20;100463.48;1721204;82;20969;-59
2022/05/05 10:09:09;;;;;;;2.35;1.10;;;;;;;13.45;35.64;100473.32;1729403;81;21504;-58
2022/05/05 10:11:35;;;;;;;2.40;1.30;;;;;;;13.38;35.90;100468.13;1744487;81;21016;-59
2022/05/05 10:14:04;;;;;;;2.70;1.10;;;;;;;13.41;36.55;100465.38;1748057;81;21037;-59
2022/05/05 10:16:31;;;;;;;4.00;2.25;;;;;;;13.39;35.76;100467.01;1734656;81;21081;-59
2022/05/05 10:18:59;;;;;;;5.47;2.05;;;;;;;13.39;36.34;100462.11;1743910;81;21102;-59
2022/05/05 10:21:46;;;;;;;2.67;1.55;;;;;;;13.34;35.56;100470.30;1739326;81;21456;-59
2022/05/05 10:24:35;;;;;;;3.80;1.60;;;;;;;13.33;35.24;100465.38;1753003;81;21074;-60
2022/05/05 10:27:03;;;;;;;3.45;1.50;;;;;;;13.23;36.53;100464.00;1738617;81;21023;-60
2022/05/05 10:29:40;;;;;;;2.75;1.17;;;;;;;13.22;36.75;100461.52;1746102;80;21089;-59
2022/05/05 10:32:22;;;;;;;3.65;1.10;;;;;;;13.28;35.97;100456.36;1742527;81;21026;-60
2022/05/05 10:35:07;;;;;;;2.90;1.10;;;;;;;13.40;35.31;100460.45;1742838;80;21118;-60
2022/05/05 10:37:37;;;;;;;5.67;1.17;;;;;;;13.48;35.86;100455.53;1724332;81;20976;-59
2022/05/05 10:40:09;;;;;;;4.10;1.35;;;;;;;13.51;36.08;100450.34;1745124;81;21113;-59
2022/05/05 10:42:45;;;;;;;3.08;1.02;;;;;;;13.60;35.18;100459.66;1720115;81;21045;-59
2022/05/05 10:45:31;;;;;;;3.20;1.02;;;;;;;13.64;35.67;100464.03;1750561;80;21052;-59
2022/05/05 10:48:06;;;;;;;2.72;1.07;;;;;;;13.72;34.40;100463.45;1746791;81;21514;-59
2022/05/05 10:50:56;;;;;;;2.25;0.88;;;;;;;13.69;33.39;100455.80;1726374;81;21087;-60
2022/05/05 10:53:40;;;;;;;2.60;1.20;;;;;;;13.64;34.53;100448.41;1727141;81;21550;-60
2022/05/05 10:56:29;;;;;;;4.30;1.30;;;;;;;13.72;33.80;100452.52;1720484;81;21005;-59
2022/05/05 10:59:09;;;;;;;2.90;1.25;;;;;;;13.63;35.17;100444.05;1746649;81;21574;-60
2022/05/05 11:01:50;;;;;;;2.75;1.12;;;;;;;13.64;35.60;100456.62;1741458;82;21852;-59
2022/05/05 11:04:23;;;;;;;5.05;1.12;;;;;;;13.71;34.99;100448.95;1736250;81;21053;-60
2022/05/05 11:07:13;;;;;;;2.98;1.55;;;;;;;13.74;33.78;100444.86;1738914;81;20967;-60
2022/05/05 11:09:40;;;;;;;3.40;1.27;;;;;;;13.71;34.42;100444.84;1709326;81;21463;-60
2022/05/05 11:12:17;;;;;;;2.77;1.20;;;;;;;13.71;34.65;100451.69;1747458;81;21071;-60
2022/05/05 11:23:44;;;;;;;2.75;1.20;;;;;;;13.66;34.31;100440.77;1739391;81;21133;-60
2022/05/05 11:26:13;;;;;;;3.33;1.20;;;;;;;13.75;33.41;100442.38;1746226;81;21365;-60
2022/05/05 11:28:39;;;;;;;2.45;0.93;;;;;;;13.82;33.73;100437.44;1707693;82;21080;-60
2022/05/05 11:31:19;;;;;;;2.52;1.22;;;;;;;13.95;33.81;100429.51;1736694;81;21067;-60
2022/05/05 11:33:55;;;;;;;2.65;1.30;;;;;;;14.13;33.31;100430.01;1736505;80;21591;-60
2022/05/05 11:36:29;;;;;;;2.47;1.25;;;;;;;14.22;32.90;100431.06;1733380;82;21000;-60
2022/05/05 11:38:56;;;;;;;2.17;1.00;;;;;;;14.30;32.09;100427.75;1688353;83;21092;-60
2022/05/05 11:41:23;;;;;;;4.03;1.25;;;;;;;14.26;32.43;100430.23;1727945;81;21086;-60
2022/05/05 11:46:36;;;;;;;5.45;1.10;;;;;;;14.25;32.78;100427.22;1732314;81;21556;-59
2022/05/05 11:49:03;;;;;;;3.47;1.20;;;;;;;14.26;33.70;100427.50;1727056;81;21623;-60
2022/05/05 11:51:33;;;;;;;2.70;1.22;;;;;;;14.31;32.87;100421.19;1745053;81;21053;-60
2022/05/05 11:54:10;;;;;;;2.55;0.88;;;;;;;14.29;32.63;100425.56;1733581;81;21095;-59
2022/05/05 11:56:39;;;;;;;;;;;;;;;14.30;33.17;100420.91;1747637;82;21021;-60
2022/05/05 12:02:04;;;;;;;2.45;1.30;;;;;;;14.14;30.84;100417.94;1738982;81;21032;-60
2022/05/05 12:04:32;;;;;;;2.72;1.07;;;;;;;14.08;31.16;100404.83;1741777;80;21022;-60
2022/05/05 12:06:59;;;;;;;3.58;1.10;;;;;;;14.14;32.37;100406.44;1746722;81;21470;-60
2022/05/05 12:09:26;;;;;;;1.98;1.27;;;;;;;14.26;31.52;100404.77;1729723;81;21007;-59
2022/05/05 12:11:53;;;;;;;3.50;1.30;;;;;;;14.38;31.34;100399.83;1700400;82;21486;-60
2022/05/05 12:14:22;;;;;;;5.75;1.45;;;;;;;14.43;31.56;100403.35;1739950;80;21118;-60
2022/05/05 12:16:51;;;;;;;3.65;1.20;;;;;;;14.39;30.94;100392.68;1740989;81;20972;-59
2022/05/05 12:19:20;;;;;;;2.15;1.25;;;;;;;14.29;31.54;100383.66;1723435;81;21260;-59
2022/05/05 12:21:54;;;;;;;4.53;1.47;;;;;;;14.41;31.91;100380.09;1754827;82;21520;-60
2022/05/05 12:24:23;;;;;;;3.30;0.98;;;;;;;14.49;32.79;100389.06;1754427;80;21089;-59
2022/05/05 12:27:07;;;;;;;3.33;1.22;;;;;;;14.61;32.48;100389.56;1741241;82;21053;-59
2022/05/05 12:29:44;;;;;;;2.75;1.00;;;;;;;14.74;32.39;100382.63;1719681;81;21071;-60
2022/05/05 12:32:18;;;;;;;2.30;1.20;;;;;;;14.81;30.33;100390.80;1729278;83;21036;-60